Greenville Spartanburg International Airport Greenville US
ICAO: KGSP
IATA: GSP
Category: Large
Scheduled Services: Yes

Elevation: 964 ft
TransAlt. 18000 ft.

Airport Communications:
GREER APP/DEP:120.6
ATIS:134.25
CTAF:120.1
GREER GND:121.9
GREER TWR:120.1
UNICOM:122.95

KGSP Zoom In..

Runways:

(A) RW 04 length 11001 ft width 150 ft
ILS 109.30 / hdg 38

(B) RW 22 length 11001 ft width 150 ft
ILS 110.70 / hdg 218

Location; KGSP
Day. 11 / Time. 18.53 Zulu
* Altimeter: 29.88
* Temperature: 32° c. 89.6°f.
* Wind from: 020° Speed 08 kn.
Dewpoint: 18° c.
Visibility: 10 Statute Miles.
Clouds: Scattered 6000 ft.

KGSP 111853Z 02008KT 10SM SCT060 32/18 A2988 RMK AO2 SLP105 T03170178

Going to: --> -->


Wind From 020°
Speed 08 kn.

 
 
jpsmedia worldairports.se 2020   terms of use